Página principal
METAR-TAF:

METAR-TAF

Aeroportos :

Chongqing, China

Aeroporto Internacional de Chongqing Jiangbei

latitude: 29-31N, longitude: 106-29E, altura: 351 m

Observação actual do tempo

O boletim foi feito há 1 hora e 4 minutos, às 01:00 UTC
Vento 4 kt de norte
Temperatura 16°C
Humidade 88%
Pressão 1023 hPa
Visibilidade 10 km ou mais
Poucas nuvensa uma altura de 900 ft
Nuvens fragmentadasa uma altura de 2600 ft
Encobertoa uma altura de 5000 ft

METAR: ZUCK 180100Z 36002MPS 9999 FEW009 BKN026 OVC050 16/14 Q1023 NOSIG

Hora: 10:04 (02:04 UTC)

Previsão

O boletim foi feito há 6 horas e 57 minutos, às 19:07 UTC
Previsão válida de 18 às 00 UTC a 18 às 24 UTC
Vento 6 kt de nor-nordeste
Visibilidade: 5000 m
Nuvens dispersasa uma altura de 2000 ft
Encobertoa uma altura de 4000 ft
neblina

TAF: ZUCK 171907Z 1800/1824 03003MPS 5000 BR SCT020 OVC040 TX17/1808Z TN15/1822Z

Observações e previsões do tempo de mais de 4000 aeroportos (mensagens METAR e TAF).

As estações disponíveis são os pontos amarelos e vermelhos sobre o mapa.

Mova o rato sobre o mapa para ver o nome da estação.

Depois clique no ponto para visualizar as observações e previsões meteorológicas.

Para alterar o mapa : clique nos botões verdes com uma cruz preta para aumentar o zoom; no botão verde com uma pitada de zoom; ou nas setas verdes para mapas adjacentes.


METAR-TAF: